createdAt,value
2022-09-09T00:00:48.778Z,23.80
2022-09-09T00:03:22.671Z,23.70
2022-09-09T00:05:58.260Z,23.70
2022-09-09T00:08:44.742Z,23.70
2022-09-09T00:11:16.764Z,23.70
2022-09-09T00:13:58.003Z,23.70
2022-09-09T00:16:32.842Z,23.70
2022-09-09T00:19:15.368Z,23.70
2022-09-09T00:21:55.382Z,23.70
2022-09-09T00:24:36.440Z,23.70
2022-09-09T00:27:30.315Z,23.70
2022-09-09T00:30:15.032Z,23.70
2022-09-09T00:32:42.231Z,23.70
2022-09-09T00:35:18.975Z,23.70
2022-09-09T00:37:49.895Z,23.70
2022-09-09T00:40:33.260Z,23.70
2022-09-09T00:43:08.350Z,23.70
2022-09-09T00:46:12.655Z,23.70
2022-09-09T00:48:51.946Z,23.80
2022-09-09T00:51:57.357Z,23.80
2022-09-09T00:54:32.555Z,23.80
2022-09-09T00:57:19.602Z,23.80
2022-09-09T00:59:53.320Z,23.80
2022-09-09T01:02:46.411Z,23.80
2022-09-09T01:05:36.002Z,23.70
2022-09-09T01:08:10.300Z,23.80
2022-09-09T01:10:51.096Z,23.80
2022-09-09T01:13:28.012Z,23.70
2022-09-09T01:15:59.725Z,23.70
2022-09-09T01:18:35.637Z,23.70
2022-09-09T01:21:10.602Z,23.70
2022-09-09T01:23:50.271Z,23.70
2022-09-09T01:26:33.170Z,23.70
2022-09-09T01:28:59.920Z,23.70
2022-09-09T01:31:57.839Z,23.70
2022-09-09T01:34:29.535Z,23.70
2022-09-09T01:36:59.310Z,23.70
2022-09-09T01:39:26.938Z,23.80
2022-09-09T01:41:55.613Z,23.80
2022-09-09T01:44:23.100Z,23.80
2022-09-09T01:46:49.884Z,23.70
2022-09-09T01:49:18.349Z,23.70
2022-09-09T01:51:50.674Z,23.70
2022-09-09T01:54:17.451Z,23.70
2022-09-09T01:57:05.228Z,23.70
2022-09-09T01:59:46.318Z,23.70
2022-09-09T02:02:18.286Z,23.70
2022-09-09T02:04:57.621Z,23.70
2022-09-09T02:07:52.360Z,23.70
2022-09-09T02:10:33.618Z,23.70
2022-09-09T02:13:08.719Z,23.70
2022-09-09T02:15:44.485Z,23.70
2022-09-09T02:18:14.690Z,23.70
2022-09-09T02:20:43.957Z,23.70
2022-09-09T02:23:13.604Z,23.70
2022-09-09T02:25:42.341Z,23.70
2022-09-09T02:28:11.539Z,23.70
2022-09-09T02:30:40.791Z,23.70
2022-09-09T02:33:11.639Z,23.70
2022-09-09T02:35:39.040Z,23.70
2022-09-09T02:38:10.201Z,23.70
2022-09-09T02:40:37.082Z,23.70
2022-09-09T02:43:04.026Z,23.70
2022-09-09T02:45:50.600Z,23.70
2022-09-09T02:48:35.526Z,23.70
2022-09-09T02:51:28.361Z,23.70
2022-09-09T02:54:34.100Z,23.70
2022-09-09T02:57:21.513Z,23.70
2022-09-09T02:59:48.651Z,23.80
2022-09-09T03:02:15.444Z,23.70
2022-09-09T03:04:45.287Z,23.70
2022-09-09T03:07:13.075Z,23.70
2022-09-09T03:09:39.852Z,23.70
2022-09-09T03:12:08.071Z,23.70
2022-09-09T03:14:34.860Z,23.70
2022-09-09T03:17:03.328Z,23.70
2022-09-09T03:19:30.938Z,23.70
2022-09-09T03:21:58.280Z,23.70
2022-09-09T03:24:25.570Z,23.70
2022-09-09T03:26:52.565Z,23.70
2022-09-09T03:29:19.638Z,23.70
2022-09-09T03:31:46.456Z,23.70
2022-09-09T03:34:14.688Z,23.70
2022-09-09T03:36:42.143Z,23.70
2022-09-09T03:39:08.890Z,23.70
2022-09-09T03:41:35.578Z,23.70
2022-09-09T03:44:02.424Z,23.70
2022-09-09T03:46:29.144Z,23.70
2022-09-09T03:48:56.451Z,23.70
2022-09-09T03:51:23.298Z,23.70
2022-09-09T03:53:50.118Z,23.70
2022-09-09T03:56:16.846Z,23.70
2022-09-09T03:58:44.581Z,23.70
2022-09-09T04:01:18.682Z,23.70
2022-09-09T04:03:45.922Z,23.70
2022-09-09T04:06:15.478Z,23.70
2022-09-09T04:08:42.709Z,23.70
2022-09-09T04:11:10.691Z,23.70
2022-09-09T04:13:40.002Z,23.70
2022-09-09T04:16:07.592Z,23.70
2022-09-09T04:18:35.593Z,23.70
2022-09-09T04:21:03.627Z,23.70
2022-09-09T04:23:30.530Z,23.70
2022-09-09T04:25:58.942Z,23.70
2022-09-09T04:28:28.275Z,23.70
2022-09-09T04:30:56.235Z,23.70
2022-09-09T04:33:26.865Z,23.70
2022-09-09T04:35:54.695Z,23.70
2022-09-09T04:38:23.602Z,23.70
2022-09-09T04:40:52.844Z,23.70
2022-09-09T04:43:23.218Z,23.70
2022-09-09T04:45:52.237Z,23.70
2022-09-09T04:48:19.641Z,23.70
2022-09-09T04:50:55.771Z,23.70
2022-09-09T04:53:23.110Z,23.70
2022-09-09T04:55:50.269Z,23.70
2022-09-09T04:58:17.078Z,23.70
2022-09-09T05:00:44.057Z,23.70
2022-09-09T05:03:10.829Z,23.70
2022-09-09T05:05:37.835Z,23.60
2022-09-09T05:08:09.076Z,23.60
2022-09-09T05:10:38.713Z,23.60
2022-09-09T05:13:06.259Z,23.60
2022-09-09T05:15:32.979Z,23.50
2022-09-09T05:18:01.559Z,23.50
2022-09-09T05:20:29.008Z,23.50
2022-09-09T05:22:57.448Z,23.50
2022-09-09T05:25:26.900Z,23.60
2022-09-09T05:27:54.719Z,23.50
2022-09-09T05:30:23.138Z,23.50
2022-09-09T05:32:49.959Z,23.40
2022-09-09T05:35:17.341Z,23.40
2022-09-09T05:37:44.097Z,23.40
2022-09-09T05:40:11.897Z,23.30
2022-09-09T05:42:39.949Z,23.30
2022-09-09T05:45:08.769Z,23.20
2022-09-09T05:47:36.461Z,23.20
2022-09-09T05:50:03.435Z,23.10
2022-09-09T05:52:30.267Z,23.10
2022-09-09T05:54:57.996Z,23.10
2022-09-09T05:57:24.738Z,23.10
2022-09-09T05:59:51.465Z,23.10
2022-09-09T06:02:18.239Z,23.10
2022-09-09T06:04:45.134Z,23.00
2022-09-09T06:07:11.883Z,23.00
2022-09-09T06:09:38.577Z,23.00
2022-09-09T06:12:05.584Z,23.00
2022-09-09T06:14:32.238Z,23.00
2022-09-09T06:16:59.023Z,23.00
2022-09-09T06:19:27.369Z,23.00
2022-09-09T06:21:54.010Z,23.00
2022-09-09T06:24:21.045Z,22.90
2022-09-09T06:26:47.842Z,22.90
2022-09-09T06:29:14.566Z,22.90
2022-09-09T06:31:42.391Z,22.90
2022-09-09T06:34:10.176Z,22.90
2022-09-09T06:36:39.118Z,22.90
2022-09-09T06:39:10.855Z,22.90
2022-09-09T06:41:40.696Z,22.90
2022-09-09T06:44:07.639Z,22.90
2022-09-09T06:46:34.729Z,23.00
2022-09-09T06:49:01.754Z,23.00
2022-09-09T06:51:31.895Z,23.10
2022-09-09T06:54:00.381Z,23.10
2022-09-09T06:56:35.773Z,23.20
2022-09-09T06:59:05.046Z,23.20
2022-09-09T07:01:34.350Z,23.30
2022-09-09T07:04:02.826Z,23.30
2022-09-09T07:06:31.947Z,23.30
2022-09-09T07:09:00.824Z,23.30
2022-09-09T07:11:30.210Z,23.30
2022-09-09T07:13:58.914Z,23.40
2022-09-09T07:16:26.816Z,23.40
2022-09-09T07:18:54.027Z,23.40
2022-09-09T07:21:21.987Z,23.40
2022-09-09T07:23:48.661Z,23.40
2022-09-09T07:26:20.200Z,23.40
2022-09-09T07:28:47.463Z,23.40
2022-09-09T07:31:17.560Z,23.50
2022-09-09T07:33:45.660Z,23.40
2022-09-09T07:36:15.119Z,23.40
2022-09-09T07:38:44.576Z,23.40
2022-09-09T07:41:13.543Z,23.40
2022-09-09T07:43:41.391Z,23.40
2022-09-09T07:46:09.042Z,23.40
2022-09-09T07:48:36.457Z,23.40
2022-09-09T07:51:07.664Z,23.40
2022-09-09T07:53:36.193Z,23.50
2022-09-09T07:56:08.417Z,23.40
2022-09-09T07:58:38.267Z,23.50
2022-09-09T08:01:18.931Z,23.50
2022-09-09T08:03:47.503Z,23.50
2022-09-09T08:06:14.743Z,23.50
2022-09-09T08:08:44.275Z,23.50
2022-09-09T08:11:13.580Z,23.50
2022-09-09T08:13:40.883Z,23.50
2022-09-09T08:16:15.238Z,23.50
2022-09-09T08:18:42.749Z,23.50
2022-09-09T08:21:15.769Z,23.50
2022-09-09T08:23:43.908Z,23.50
2022-09-09T08:26:14.328Z,23.50
2022-09-09T08:28:41.763Z,23.50
2022-09-09T08:31:17.344Z,23.50
2022-09-09T08:33:46.911Z,23.50
2022-09-09T08:36:16.598Z,23.60
2022-09-09T08:38:44.577Z,23.50
2022-09-09T08:41:39.179Z,23.50
2022-09-09T08:44:16.058Z,23.60
2022-09-09T08:46:57.720Z,23.60
2022-09-09T08:49:36.331Z,23.60
2022-09-09T08:52:07.299Z,23.60
2022-09-09T08:54:51.725Z,23.60
2022-09-09T08:57:27.851Z,23.60
2022-09-09T08:59:57.602Z,23.60
2022-09-09T09:02:39.124Z,23.60
2022-09-09T09:05:28.604Z,23.60
2022-09-09T09:07:55.246Z,23.60
2022-09-09T09:10:50.835Z,23.60
2022-09-09T09:13:22.111Z,23.60
2022-09-09T09:15:59.004Z,23.60
2022-09-09T09:18:25.982Z,23.60
2022-09-09T09:21:07.021Z,23.60
2022-09-09T09:23:43.819Z,23.60
2022-09-09T09:26:14.239Z,23.70
2022-09-09T09:28:41.407Z,23.60
2022-09-09T09:31:11.597Z,23.70
2022-09-09T09:33:55.414Z,23.60
2022-09-09T09:36:33.781Z,23.60
2022-09-09T09:41:48.877Z,23.70
2022-09-09T09:44:28.402Z,23.70
2022-09-09T09:47:09.303Z,23.70
2022-09-09T09:49:36.072Z,23.70
2022-09-09T09:52:04.753Z,23.70
2022-09-09T09:54:39.648Z,23.70
2022-09-09T09:57:15.862Z,23.70
2022-09-09T09:59:43.710Z,23.70
2022-09-09T10:02:28.197Z,23.70
2022-09-09T10:05:27.503Z,23.80
2022-09-09T10:08:17.520Z,23.80
2022-09-09T10:11:03.839Z,23.80
2022-09-09T10:13:55.824Z,23.80
2022-09-09T10:16:41.318Z,23.80
2022-09-09T10:19:26.348Z,23.80
2022-09-09T10:21:56.550Z,23.80
2022-09-09T10:24:31.991Z,23.80
2022-09-09T10:27:21.090Z,23.80
2022-09-09T10:30:13.217Z,23.80
2022-09-09T10:32:56.691Z,23.80
2022-09-09T10:35:29.944Z,23.70
2022-09-09T10:38:12.071Z,23.70
2022-09-09T10:40:45.449Z,23.80
2022-09-09T10:43:29.688Z,23.70
2022-09-09T10:46:30.630Z,23.70
2022-09-09T10:49:31.857Z,23.80
2022-09-09T10:52:27.521Z,23.80
2022-09-09T10:54:58.142Z,23.80
2022-09-09T10:57:35.143Z,23.80
2022-09-09T11:00:15.450Z,23.80
2022-09-09T11:02:43.127Z,23.80
2022-09-09T11:05:20.314Z,23.80
2022-09-09T11:08:03.782Z,23.80
2022-09-09T11:10:53.425Z,23.80
2022-09-09T11:13:46.725Z,23.80
2022-09-09T11:16:37.259Z,23.90
2022-09-09T11:19:24.502Z,23.90
2022-09-09T11:21:52.969Z,23.90
2022-09-09T11:24:23.600Z,24.00
2022-09-09T11:27:17.133Z,24.00
2022-09-09T11:30:38.103Z,24.00
2022-09-09T11:33:35.558Z,24.00
2022-09-09T11:36:26.647Z,24.10
2022-09-09T11:38:58.991Z,24.10
2022-09-09T11:41:38.430Z,24.10
2022-09-09T11:44:14.001Z,24.20
2022-09-09T11:46:42.442Z,24.20
2022-09-09T11:49:40.270Z,24.20
2022-09-09T11:52:22.392Z,24.20
2022-09-09T11:54:51.187Z,24.20
2022-09-09T11:57:33.301Z,24.20
2022-09-09T12:00:01.003Z,24.30
2022-09-09T12:02:32.128Z,24.30
2022-09-09T12:05:06.632Z,24.30
2022-09-09T12:07:46.706Z,24.30
2022-09-09T12:10:40.986Z,24.30
2022-09-09T12:13:23.776Z,24.40
2022-09-09T12:15:56.383Z,24.40
2022-09-09T12:18:40.554Z,24.50
2022-09-09T12:21:13.149Z,24.50
2022-09-09T12:23:53.263Z,24.50
2022-09-09T12:26:25.815Z,24.50
2022-09-09T12:29:01.467Z,24.50
2022-09-09T12:31:37.911Z,24.50
2022-09-09T12:34:15.095Z,24.50
2022-09-09T12:36:45.398Z,24.50
2022-09-09T12:39:26.067Z,24.60
2022-09-09T12:42:00.911Z,24.70
2022-09-09T12:44:30.902Z,24.70
2022-09-09T12:47:02.289Z,24.80
2022-09-09T12:49:40.194Z,24.80
2022-09-09T12:52:23.975Z,24.90
2022-09-09T12:54:54.703Z,24.90
2022-09-09T12:57:26.426Z,25.00
2022-09-09T12:59:54.254Z,24.90
2022-09-09T13:02:27.411Z,24.90
2022-09-09T13:04:55.279Z,24.90
2022-09-09T13:07:22.663Z,24.90
2022-09-09T13:09:50.215Z,24.90
2022-09-09T13:12:23.459Z,24.90
2022-09-09T13:14:54.147Z,24.90
2022-09-09T13:17:26.668Z,24.90
2022-09-09T13:19:54.390Z,24.90
2022-09-09T13:22:35.569Z,24.90
2022-09-09T13:25:11.691Z,24.90
2022-09-09T13:27:41.985Z,24.80
2022-09-09T13:30:43.820Z,24.80
2022-09-09T13:33:10.516Z,24.70
2022-09-09T13:35:57.372Z,24.70
2022-09-09T13:38:27.823Z,24.70
2022-09-09T13:41:05.318Z,24.80
2022-09-09T13:43:43.638Z,24.80
2022-09-09T13:46:36.289Z,24.90
2022-09-09T13:49:23.822Z,25.00
2022-09-09T13:52:12.911Z,24.90
2022-09-09T13:54:40.436Z,24.90
2022-09-09T13:57:22.654Z,25.00
2022-09-09T14:00:06.117Z,25.50
2022-09-09T14:02:34.650Z,26.00
2022-09-09T14:05:01.674Z,26.40
2022-09-09T14:07:28.525Z,26.80
2022-09-09T14:09:55.230Z,26.90
2022-09-09T14:12:21.909Z,26.80
2022-09-09T14:14:48.663Z,26.60
2022-09-09T14:17:15.887Z,26.60
2022-09-09T14:19:43.644Z,26.60
2022-09-09T14:22:10.436Z,26.60
2022-09-09T14:24:37.200Z,26.70
2022-09-09T14:27:03.994Z,26.80
2022-09-09T14:29:30.760Z,27.10
2022-09-09T14:31:57.545Z,27.30
2022-09-09T14:34:25.447Z,27.60
2022-09-09T14:36:52.417Z,27.70
2022-09-09T14:39:19.247Z,27.60
2022-09-09T14:41:46.775Z,27.60
2022-09-09T14:44:13.510Z,27.60
2022-09-09T14:46:40.291Z,27.60
2022-09-09T14:49:06.973Z,27.60
2022-09-09T14:51:33.684Z,27.70
2022-09-09T14:54:00.691Z,27.60
2022-09-09T14:56:30.510Z,27.40
2022-09-09T14:58:59.361Z,27.20
2022-09-09T15:01:29.407Z,26.90
2022-09-09T15:04:01.430Z,26.60
2022-09-09T15:06:30.240Z,26.40
2022-09-09T15:09:00.455Z,26.10
2022-09-09T15:11:29.425Z,26.00
2022-09-09T15:13:56.149Z,25.80
2022-09-09T15:16:25.732Z,25.70
2022-09-09T15:18:55.210Z,25.60
2022-09-09T15:21:23.929Z,25.50
2022-09-09T15:23:52.204Z,25.40
2022-09-09T15:26:19.458Z,25.30
2022-09-09T15:28:48.277Z,25.30
2022-09-09T15:31:18.575Z,25.30
2022-09-09T15:33:54.330Z,25.20
2022-09-09T15:36:26.031Z,25.20
2022-09-09T15:38:53.527Z,25.10
2022-09-09T15:41:22.570Z,25.10
2022-09-09T15:43:57.474Z,25.10
2022-09-09T15:46:28.790Z,25.10
2022-09-09T15:48:57.743Z,25.10
2022-09-09T15:51:43.064Z,25.10
2022-09-09T15:54:24.313Z,25.10
2022-09-09T15:56:53.840Z,25.10
2022-09-09T15:59:20.582Z,25.10
2022-09-09T16:01:47.483Z,25.10
2022-09-09T16:04:14.331Z,25.10
2022-09-09T16:06:41.142Z,25.10
2022-09-09T16:09:08.631Z,25.10
2022-09-09T16:11:38.312Z,25.00
2022-09-09T16:14:07.418Z,25.00
2022-09-09T16:16:36.146Z,25.00
2022-09-09T16:19:08.289Z,25.00
2022-09-09T16:21:46.781Z,25.00
2022-09-09T16:24:16.102Z,25.00
2022-09-09T16:26:46.185Z,25.00
2022-09-09T16:29:15.221Z,25.00
2022-09-09T16:31:42.926Z,25.00
2022-09-09T16:34:10.482Z,25.00
2022-09-09T16:36:40.019Z,25.00
2022-09-09T16:39:15.495Z,25.00
2022-09-09T16:41:44.749Z,24.90
2022-09-09T16:44:13.407Z,24.90
2022-09-09T16:46:42.619Z,24.90
2022-09-09T16:49:12.002Z,24.90
2022-09-09T16:51:41.005Z,24.90
2022-09-09T16:54:09.347Z,24.90
2022-09-09T16:56:38.615Z,24.90
2022-09-09T16:59:11.693Z,24.80
2022-09-09T17:01:41.828Z,24.80
2022-09-09T17:04:16.326Z,24.80
2022-09-09T17:06:46.372Z,24.80
2022-09-09T17:09:14.005Z,24.70
2022-09-09T17:11:41.154Z,24.70
2022-09-09T17:14:10.345Z,24.70
2022-09-09T17:16:37.803Z,24.70
2022-09-09T17:19:05.239Z,24.70
2022-09-09T17:21:33.465Z,24.70
2022-09-09T17:24:00.645Z,24.70
2022-09-09T17:26:30.173Z,24.70
2022-09-09T17:29:01.596Z,24.70
2022-09-09T17:31:30.416Z,24.70
2022-09-09T17:33:57.672Z,24.60
2022-09-09T17:36:30.026Z,24.60
2022-09-09T17:38:57.492Z,24.60
2022-09-09T17:41:32.446Z,24.50
2022-09-09T17:43:59.433Z,24.50
2022-09-09T17:46:32.437Z,24.50
2022-09-09T17:49:01.643Z,24.50
2022-09-09T17:51:31.093Z,24.50
2022-09-09T17:54:04.122Z,24.50
2022-09-09T17:56:33.291Z,24.50
2022-09-09T17:59:02.058Z,24.50
2022-09-09T18:01:32.343Z,24.50
2022-09-09T18:04:04.461Z,24.50
2022-09-09T18:06:37.206Z,24.50
2022-09-09T18:09:08.087Z,24.50
2022-09-09T18:11:43.002Z,24.50
2022-09-09T18:14:13.158Z,24.50
2022-09-09T18:16:41.022Z,24.40
2022-09-09T18:19:11.891Z,24.40
2022-09-09T18:21:38.649Z,24.40
2022-09-09T18:24:07.088Z,24.40
2022-09-09T18:26:35.274Z,24.40
2022-09-09T18:29:05.841Z,24.40
2022-09-09T18:31:32.717Z,24.40
2022-09-09T18:34:01.458Z,24.40
2022-09-09T18:36:31.080Z,24.40
2022-09-09T18:38:59.425Z,24.40
2022-09-09T18:41:31.855Z,24.30
2022-09-09T18:44:01.198Z,24.40
2022-09-09T18:46:30.235Z,24.30
2022-09-09T18:48:57.606Z,24.30
2022-09-09T18:51:26.958Z,24.30
2022-09-09T18:53:59.022Z,24.30
2022-09-09T18:56:26.469Z,24.30
2022-09-09T18:58:55.683Z,24.30
2022-09-09T19:01:23.605Z,24.30
2022-09-09T19:03:51.345Z,24.30
2022-09-09T19:06:21.768Z,24.30
2022-09-09T19:08:52.235Z,24.30
2022-09-09T19:11:23.310Z,24.30
2022-09-09T19:13:52.177Z,24.30
2022-09-09T19:16:20.375Z,24.30
2022-09-09T19:18:48.274Z,24.30
2022-09-09T19:21:19.003Z,24.30
2022-09-09T19:23:59.977Z,24.20
2022-09-09T19:26:29.690Z,24.20
2022-09-09T19:28:58.770Z,24.20
2022-09-09T19:31:27.986Z,24.20
2022-09-09T19:33:55.891Z,24.20
2022-09-09T19:36:24.474Z,24.20
2022-09-09T19:38:53.085Z,24.20
2022-09-09T19:41:25.494Z,24.20
2022-09-09T19:44:01.996Z,24.20
2022-09-09T19:46:39.505Z,24.20
2022-09-09T19:49:06.978Z,24.20
2022-09-09T19:51:36.374Z,24.20
2022-09-09T19:54:09.100Z,24.20
2022-09-09T19:56:38.659Z,24.20
2022-09-09T19:59:10.661Z,24.20
2022-09-09T20:01:40.991Z,24.20
2022-09-09T20:04:08.507Z,24.20
2022-09-09T20:06:40.251Z,24.20
2022-09-09T20:09:10.661Z,24.20
2022-09-09T20:11:39.143Z,24.20
2022-09-09T20:14:07.369Z,24.20
2022-09-09T20:16:34.200Z,24.10
2022-09-09T20:19:04.356Z,24.10
2022-09-09T20:21:49.504Z,24.10
2022-09-09T20:24:19.945Z,24.10
2022-09-09T20:26:48.002Z,24.10
2022-09-09T20:29:18.083Z,24.10
2022-09-09T20:31:45.126Z,24.10
2022-09-09T20:34:14.393Z,24.10
2022-09-09T20:36:42.469Z,24.10
2022-09-09T20:39:11.941Z,24.10
2022-09-09T20:41:40.352Z,24.10
2022-09-09T20:44:12.341Z,24.10
2022-09-09T20:46:42.567Z,24.10
2022-09-09T20:49:11.301Z,24.10
2022-09-09T20:51:38.401Z,24.10
2022-09-09T20:54:08.651Z,24.10
2022-09-09T20:56:38.579Z,24.00
2022-09-09T20:59:07.045Z,24.00
2022-09-09T21:01:34.016Z,24.00
2022-09-09T21:04:00.968Z,24.00
2022-09-09T21:06:27.733Z,24.00
2022-09-09T21:08:54.587Z,24.00
2022-09-09T21:11:21.455Z,24.00
2022-09-09T21:13:48.461Z,24.00
2022-09-09T21:16:19.491Z,24.00
2022-09-09T21:18:46.592Z,24.00
2022-09-09T21:21:13.648Z,24.00
2022-09-09T21:23:40.414Z,24.00
2022-09-09T21:26:07.797Z,24.00
2022-09-09T21:28:36.091Z,24.00
2022-09-09T21:31:03.681Z,24.00
2022-09-09T21:33:30.705Z,24.00
2022-09-09T21:36:06.454Z,24.00
2022-09-09T21:38:34.303Z,24.00
2022-09-09T21:41:05.543Z,23.90
2022-09-09T21:43:32.686Z,24.00
2022-09-09T21:45:59.566Z,24.00
2022-09-09T21:48:26.375Z,23.90
2022-09-09T21:50:54.120Z,23.90
2022-09-09T21:53:21.690Z,23.90
2022-09-09T21:55:49.124Z,23.90
2022-09-09T21:58:18.188Z,23.90
2022-09-09T22:00:46.723Z,23.90
2022-09-09T22:03:15.439Z,23.90
2022-09-09T22:05:44.104Z,23.90
2022-09-09T22:08:12.317Z,23.90
2022-09-09T22:10:41.198Z,23.90
2022-09-09T22:13:08.337Z,23.90
2022-09-09T22:15:36.365Z,23.90
2022-09-09T22:18:04.329Z,23.90
2022-09-09T22:20:35.472Z,23.90
2022-09-09T22:23:02.235Z,23.90
2022-09-09T22:25:35.227Z,23.90
2022-09-09T22:28:07.162Z,23.90
2022-09-09T22:30:34.184Z,23.90
2022-09-09T22:33:01.471Z,23.90
2022-09-09T22:35:29.087Z,23.90
2022-09-09T22:37:55.933Z,23.90
2022-09-09T22:40:23.209Z,23.90
2022-09-09T22:42:52.690Z,23.90
2022-09-09T22:45:20.882Z,23.90
2022-09-09T22:47:47.968Z,23.80
2022-09-09T22:50:14.886Z,23.80
2022-09-09T22:52:41.597Z,23.80
2022-09-09T22:55:09.399Z,23.80
2022-09-09T22:57:37.278Z,23.90
2022-09-09T23:00:08.980Z,23.80
2022-09-09T23:02:40.945Z,23.80
2022-09-09T23:05:11.128Z,23.80
2022-09-09T23:07:38.140Z,23.80
2022-09-09T23:10:05.645Z,23.80
2022-09-09T23:12:33.165Z,23.80
2022-09-09T23:15:00.136Z,23.80
2022-09-09T23:17:27.008Z,23.80
2022-09-09T23:19:56.704Z,23.80
2022-09-09T23:22:24.408Z,23.80
2022-09-09T23:24:52.784Z,23.80
2022-09-09T23:27:21.280Z,23.80
2022-09-09T23:29:48.793Z,23.80
2022-09-09T23:32:16.530Z,23.80
2022-09-09T23:34:45.373Z,23.80
2022-09-09T23:37:13.070Z,23.80
2022-09-09T23:39:40.457Z,23.80
2022-09-09T23:42:08.700Z,23.80
2022-09-09T23:44:38.155Z,23.80
2022-09-09T23:47:06.023Z,23.80
2022-09-09T23:49:33.809Z,23.80
2022-09-09T23:52:04.251Z,23.80
2022-09-09T23:54:33.107Z,23.80
2022-09-09T23:57:02.335Z,23.80
2022-09-09T23:59:30.147Z,23.80
